createdAt,value
2023-01-18T00:02:07.831Z,8.38
2023-01-18T00:04:34.295Z,9.05
2023-01-18T00:07:00.776Z,8.02
2023-01-18T00:09:27.246Z,8.68
2023-01-18T00:11:53.769Z,10.05
2023-01-18T00:14:20.240Z,10.82
2023-01-18T00:16:46.670Z,9.25
2023-01-18T00:19:14.026Z,9.25
2023-01-18T00:21:40.923Z,9.77
2023-01-18T00:24:11.022Z,10.27
2023-01-18T00:26:38.086Z,9.20
2023-01-18T00:29:05.060Z,9.35
2023-01-18T00:31:31.757Z,9.18
2023-01-18T00:33:58.303Z,9.18
2023-01-18T00:36:24.835Z,9.50
2023-01-18T00:38:52.254Z,8.57
2023-01-18T00:41:20.174Z,8.98
2023-01-18T00:43:46.662Z,10.00
2023-01-18T00:46:16.278Z,8.98
2023-01-18T00:48:44.101Z,9.40
2023-01-18T00:51:14.064Z,9.70
2023-01-18T00:53:41.139Z,10.18
2023-01-18T00:56:09.691Z,9.35
2023-01-18T00:58:37.563Z,8.57
2023-01-18T01:01:06.374Z,9.15
2023-01-18T01:03:52.132Z,9.18
2023-01-18T01:06:43.802Z,9.93
2023-01-18T01:12:07.174Z,9.85
2023-01-18T01:14:54.987Z,9.23
2023-01-18T01:17:40.183Z,8.77
2023-01-18T01:20:26.594Z,8.88
2023-01-18T01:23:11.406Z,9.05
2023-01-18T01:25:57.186Z,8.73
2023-01-18T01:28:24.113Z,9.75
2023-01-18T01:30:50.726Z,8.18
2023-01-18T01:33:18.002Z,9.20
2023-01-18T01:35:44.557Z,8.80
2023-01-18T01:38:11.176Z,8.27
2023-01-18T01:40:37.597Z,8.23
2023-01-18T01:43:04.031Z,8.77
2023-01-18T01:45:32.154Z,9.68
2023-01-18T01:47:59.412Z,9.02
2023-01-18T01:50:31.344Z,8.45
2023-01-18T01:52:58.512Z,8.95
2023-01-18T01:55:30.196Z,8.32
2023-01-18T02:00:27.567Z,8.57
2023-01-18T02:03:00.732Z,8.73
2023-01-18T02:09:14.832Z,10.18
2023-01-18T02:11:42.299Z,10.93
2023-01-18T02:14:12.866Z,11.88
2023-01-18T02:17:10.361Z,11.43
2023-01-18T02:20:01.895Z,12.23
2023-01-18T02:22:48.495Z,11.45
2023-01-18T02:25:42.383Z,11.73
2023-01-18T02:28:10.420Z,10.95
2023-01-18T02:31:18.046Z,11.85
2023-01-18T02:34:02.297Z,11.27
2023-01-18T02:36:38.700Z,10.68
2023-01-18T02:39:23.563Z,10.13
2023-01-18T02:42:22.717Z,10.98
2023-01-18T02:45:08.010Z,10.60
2023-01-18T02:47:35.202Z,10.77
2023-01-18T02:50:03.309Z,11.20
2023-01-18T02:52:41.038Z,11.43
2023-01-18T02:55:24.419Z,9.43
2023-01-18T02:57:54.983Z,8.77
2023-01-18T03:00:23.389Z,8.97
2023-01-18T03:02:51.793Z,9.98
2023-01-18T03:05:19.195Z,9.77
2023-01-18T03:07:58.313Z,9.25
2023-01-18T03:10:31.078Z,8.82
2023-01-18T03:13:00.084Z,9.80
2023-01-18T03:15:56.355Z,9.15
2023-01-18T03:18:33.501Z,8.93
2023-01-18T03:21:05.541Z,9.55
2023-01-18T03:23:42.503Z,10.38
2023-01-18T03:26:14.590Z,10.00
2023-01-18T03:29:06.162Z,9.68
2023-01-18T03:32:03.409Z,9.88
2023-01-18T03:35:08.039Z,9.20
2023-01-18T03:37:40.752Z,9.77
2023-01-18T03:40:12.171Z,10.57
2023-01-18T03:42:51.915Z,11.20
2023-01-18T03:45:31.076Z,10.63
2023-01-18T03:47:57.632Z,10.13
2023-01-18T03:50:32.078Z,9.75
2023-01-18T03:53:04.624Z,9.63
2023-01-18T03:55:56.892Z,10.30
2023-01-18T03:58:32.364Z,10.70
2023-01-18T04:00:59.132Z,10.43
2023-01-18T04:03:25.671Z,9.90
2023-01-18T04:05:52.421Z,9.93
2023-01-18T04:08:21.879Z,9.43
2023-01-18T04:10:48.473Z,9.40
2023-01-18T04:13:14.985Z,9.68
2023-01-18T04:15:41.661Z,9.50
2023-01-18T04:18:08.160Z,9.30
2023-01-18T04:20:34.640Z,8.90
2023-01-18T04:23:01.411Z,8.48
2023-01-18T04:25:27.996Z,7.97
2023-01-18T04:27:54.480Z,8.25
2023-01-18T04:30:21.454Z,8.07
2023-01-18T04:32:47.901Z,8.70
2023-01-18T04:35:14.432Z,7.70
2023-01-18T04:37:41.373Z,7.95
2023-01-18T04:40:08.721Z,7.30
2023-01-18T04:42:35.221Z,7.47
2023-01-18T04:45:01.862Z,7.40
2023-01-18T04:47:29.060Z,8.35
2023-01-18T04:49:59.060Z,6.50
2023-01-18T04:52:26.717Z,5.70
2023-01-18T04:54:53.260Z,5.68
2023-01-18T04:57:19.655Z,5.65
2023-01-18T04:59:46.192Z,5.95
2023-01-18T05:02:15.128Z,4.80
2023-01-18T05:04:42.092Z,5.00
2023-01-18T05:07:08.591Z,5.40
2023-01-18T05:09:35.076Z,4.80
2023-01-18T05:12:01.838Z,4.95
2023-01-18T05:14:28.383Z,4.60
2023-01-18T05:16:54.862Z,5.93
2023-01-18T05:19:21.360Z,4.97
2023-01-18T05:21:47.937Z,5.70
2023-01-18T05:24:14.393Z,5.88
2023-01-18T05:26:40.874Z,5.10
2023-01-18T05:29:07.383Z,4.78
2023-01-18T05:31:53.329Z,5.47
2023-01-18T05:34:19.976Z,5.80
2023-01-18T05:36:47.619Z,5.00
2023-01-18T05:39:14.246Z,4.90
2023-01-18T05:41:40.662Z,4.97
2023-01-18T05:44:07.158Z,5.70
2023-01-18T05:46:33.676Z,6.15
2023-01-18T05:49:00.057Z,4.85
2023-01-18T05:51:26.610Z,5.10
2023-01-18T05:53:53.149Z,5.05
2023-01-18T05:56:19.647Z,4.70
2023-01-18T05:58:46.246Z,5.50
2023-01-18T06:01:13.148Z,5.00
2023-01-18T06:03:40.650Z,4.93
2023-01-18T06:06:07.419Z,5.25
2023-01-18T06:08:33.945Z,5.10
2023-01-18T06:11:00.927Z,5.60
2023-01-18T06:13:30.155Z,5.53
2023-01-18T06:15:58.180Z,6.05
2023-01-18T06:18:26.429Z,6.32
2023-01-18T06:20:54.791Z,6.30
2023-01-18T06:23:21.684Z,6.47
2023-01-18T06:25:48.128Z,6.47
2023-01-18T06:28:14.541Z,5.88
2023-01-18T06:30:42.938Z,6.45
2023-01-18T06:33:10.170Z,5.85
2023-01-18T06:35:37.234Z,4.80
2023-01-18T06:38:04.735Z,5.45
2023-01-18T06:40:31.321Z,6.53
2023-01-18T06:42:58.322Z,4.63
2023-01-18T06:45:25.912Z,6.18
2023-01-18T06:47:53.208Z,5.72
2023-01-18T06:50:20.227Z,6.07
2023-01-18T06:52:46.835Z,6.13
2023-01-18T06:55:14.443Z,5.75
2023-01-18T06:57:41.363Z,5.57
2023-01-18T07:00:09.409Z,5.55
2023-01-18T07:02:36.389Z,5.53
2023-01-18T07:05:04.127Z,5.10
2023-01-18T07:07:31.038Z,5.75
2023-01-18T07:09:57.621Z,5.82
2023-01-18T07:12:24.129Z,6.03
2023-01-18T07:14:51.138Z,6.15
2023-01-18T07:17:17.594Z,5.50
2023-01-18T07:19:44.796Z,5.38
2023-01-18T07:22:12.258Z,5.22
2023-01-18T07:24:38.865Z,5.30
2023-01-18T07:27:05.396Z,4.82
2023-01-18T07:29:31.942Z,5.43
2023-01-18T07:31:58.443Z,4.65
2023-01-18T07:34:25.074Z,4.70
2023-01-18T07:36:51.578Z,5.18
2023-01-18T07:39:18.077Z,4.78
2023-01-18T07:41:44.559Z,4.60
2023-01-18T07:44:11.767Z,5.18
2023-01-18T07:46:38.581Z,4.60
2023-01-18T07:49:05.850Z,4.03
2023-01-18T07:51:33.490Z,5.00
2023-01-18T07:53:59.992Z,4.20
2023-01-18T07:56:27.145Z,4.40
2023-01-18T07:58:53.741Z,4.00
2023-01-18T08:01:22.554Z,4.50
2023-01-18T08:03:50.329Z,3.58
2023-01-18T08:06:22.408Z,5.20
2023-01-18T08:08:48.985Z,5.28
2023-01-18T08:11:15.454Z,5.88
2023-01-18T08:13:41.905Z,5.15
2023-01-18T08:16:11.396Z,5.07
2023-01-18T08:18:38.446Z,4.80
2023-01-18T08:21:05.090Z,4.93
2023-01-18T08:23:31.578Z,5.45
2023-01-18T08:26:02.120Z,4.65
2023-01-18T08:28:28.657Z,4.63
2023-01-18T08:31:09.872Z,4.95
2023-01-18T08:33:41.569Z,4.88
2023-01-18T08:38:38.095Z,4.28
2023-01-18T08:41:05.113Z,3.85
2023-01-18T08:43:31.585Z,3.33
2023-01-18T08:45:58.021Z,3.80
2023-01-18T08:48:24.916Z,3.72
2023-01-18T08:50:51.809Z,3.85
2023-01-18T08:53:18.348Z,4.13
2023-01-18T08:55:44.853Z,4.22
2023-01-18T08:58:12.166Z,4.03
2023-01-18T09:00:38.724Z,3.60
2023-01-18T09:03:06.752Z,4.05
2023-01-18T09:05:35.337Z,3.90
2023-01-18T09:08:02.029Z,4.35
2023-01-18T09:10:28.610Z,3.80
2023-01-18T09:12:55.670Z,4.40
2023-01-18T09:15:22.212Z,4.53
2023-01-18T09:17:48.664Z,4.93
2023-01-18T09:20:18.523Z,5.30
2023-01-18T09:22:47.640Z,4.18
2023-01-18T09:25:14.320Z,4.30
2023-01-18T09:27:40.849Z,4.75
2023-01-18T09:30:09.588Z,4.75
2023-01-18T09:32:36.125Z,4.53
2023-01-18T09:35:02.930Z,5.13
2023-01-18T09:37:29.522Z,4.32
2023-01-18T09:39:56.112Z,4.57
2023-01-18T09:42:29.828Z,4.82
2023-01-18T09:45:00.729Z,4.15
2023-01-18T09:47:30.540Z,4.55
2023-01-18T09:49:59.353Z,4.82
2023-01-18T09:52:51.598Z,4.28
2023-01-18T09:55:42.685Z,4.38
2023-01-18T09:58:19.180Z,3.85
2023-01-18T10:00:48.568Z,4.95
2023-01-18T10:03:28.437Z,5.35
2023-01-18T10:06:08.870Z,5.97
2023-01-18T10:08:59.641Z,4.38
2023-01-18T10:11:50.487Z,4.47
2023-01-18T10:14:40.447Z,3.60
2023-01-18T10:17:14.590Z,5.20
2023-01-18T10:19:41.287Z,5.07
2023-01-18T10:22:33.380Z,4.50
2023-01-18T10:25:05.460Z,4.53
2023-01-18T10:28:12.903Z,5.15
2023-01-18T10:30:58.235Z,5.18
2023-01-18T10:33:33.320Z,4.93
2023-01-18T10:36:22.173Z,4.93
2023-01-18T10:38:52.122Z,6.13
2023-01-18T10:41:22.127Z,4.68
2023-01-18T10:43:48.742Z,6.05
2023-01-18T10:46:18.804Z,5.90
2023-01-18T10:48:53.680Z,5.03
2023-01-18T10:51:37.533Z,4.70
2023-01-18T10:54:26.129Z,5.40
2023-01-18T10:57:04.606Z,4.72
2023-01-18T10:59:39.684Z,5.68
2023-01-18T11:02:20.998Z,5.13
2023-01-18T11:04:56.671Z,5.70
2023-01-18T11:07:25.670Z,4.88
2023-01-18T11:09:55.643Z,4.95
2023-01-18T11:12:37.150Z,5.10
2023-01-18T11:15:15.798Z,5.75
2023-01-18T11:17:58.542Z,6.85
2023-01-18T11:20:30.844Z,6.05
2023-01-18T11:23:00.881Z,4.72
2023-01-18T11:25:37.134Z,5.00
2023-01-18T11:28:07.414Z,6.43
2023-01-18T11:30:34.843Z,5.35
2023-01-18T11:33:01.533Z,5.80
2023-01-18T11:35:34.164Z,5.75
2023-01-18T11:38:02.953Z,5.75
2023-01-18T11:40:32.291Z,5.78
2023-01-18T11:43:04.343Z,5.55
2023-01-18T11:45:40.861Z,5.68
2023-01-18T11:48:13.289Z,5.47
2023-01-18T11:50:54.207Z,5.80
2023-01-18T11:54:02.089Z,5.22
2023-01-18T11:56:42.426Z,4.82
2023-01-18T11:59:17.768Z,5.78
2023-01-18T12:01:56.397Z,5.28
2023-01-18T12:04:39.167Z,5.40
2023-01-18T12:07:32.151Z,6.10
2023-01-18T12:10:01.322Z,5.13
2023-01-18T12:12:55.925Z,4.97
2023-01-18T12:16:02.170Z,5.05
2023-01-18T12:18:47.733Z,5.80
2023-01-18T12:21:24.153Z,5.60
2023-01-18T12:24:16.448Z,5.40
2023-01-18T12:27:00.242Z,4.75
2023-01-18T12:29:58.010Z,5.82
2023-01-18T12:32:43.740Z,8.10
2023-01-18T12:35:23.747Z,7.72
2023-01-18T12:37:50.984Z,6.77
2023-01-18T12:40:39.032Z,6.43
2023-01-18T12:43:27.141Z,6.05
2023-01-18T12:46:07.421Z,5.90
2023-01-18T12:48:53.139Z,5.97
2023-01-18T12:51:23.879Z,8.18
2023-01-18T12:54:26.794Z,6.47
2023-01-18T12:56:56.388Z,6.18
2023-01-18T12:59:35.777Z,6.35
2023-01-18T13:02:22.295Z,5.82
2023-01-18T13:04:55.425Z,5.35
2023-01-18T13:07:30.016Z,6.05
2023-01-18T13:09:57.472Z,6.53
2023-01-18T13:12:25.917Z,5.72
2023-01-18T13:15:01.815Z,5.68
2023-01-18T13:17:47.288Z,5.28
2023-01-18T13:20:29.591Z,5.88
2023-01-18T13:22:58.896Z,5.97
2023-01-18T13:25:40.592Z,6.13
2023-01-18T13:30:56.522Z,6.28
2023-01-18T13:33:26.982Z,6.10
2023-01-18T13:35:56.416Z,6.70
2023-01-18T13:38:40.096Z,7.70
2023-01-18T13:41:11.853Z,7.22
2023-01-18T13:43:38.453Z,6.30
2023-01-18T13:46:07.777Z,7.70
2023-01-18T13:48:55.452Z,6.90
2023-01-18T13:51:40.341Z,7.50
2023-01-18T13:54:18.647Z,6.95
2023-01-18T13:57:05.517Z,7.43
2023-01-18T13:59:35.591Z,6.30
2023-01-18T14:02:17.356Z,6.47
2023-01-18T14:04:43.996Z,7.03
2023-01-18T14:07:23.044Z,7.22
2023-01-18T14:09:50.802Z,8.25
2023-01-18T14:12:50.767Z,8.98
2023-01-18T14:15:30.451Z,8.50
2023-01-18T14:17:59.212Z,8.10
2023-01-18T14:20:45.297Z,6.88
2023-01-18T14:23:39.284Z,6.93
2023-01-18T14:26:12.075Z,6.22
2023-01-18T14:28:48.020Z,6.60
2023-01-18T14:31:20.991Z,6.50
2023-01-18T14:33:47.841Z,6.40
2023-01-18T14:36:26.090Z,6.63
2023-01-18T14:39:16.270Z,7.15
2023-01-18T14:41:49.753Z,6.78
2023-01-18T14:44:56.809Z,6.40
2023-01-18T14:47:28.278Z,6.05
2023-01-18T14:49:55.723Z,4.93
2023-01-18T14:52:27.498Z,6.82
2023-01-18T14:54:55.811Z,6.38
2023-01-18T14:57:24.012Z,6.63
2023-01-18T15:00:08.032Z,6.82
2023-01-18T15:02:38.792Z,6.70
2023-01-18T15:05:17.231Z,6.85
2023-01-18T15:07:46.410Z,8.27
2023-01-18T15:10:18.684Z,7.25
2023-01-18T15:12:49.562Z,6.10
2023-01-18T15:15:26.093Z,4.07
2023-01-18T15:17:56.483Z,5.38
2023-01-18T15:20:23.142Z,6.38
2023-01-18T15:22:51.011Z,6.45
2023-01-18T15:25:24.249Z,6.20
2023-01-18T15:27:52.109Z,5.65
2023-01-18T15:30:22.092Z,5.13
2023-01-18T15:32:52.949Z,5.50
2023-01-18T15:35:22.685Z,5.85
2023-01-18T15:37:49.275Z,4.43
2023-01-18T15:40:15.903Z,5.85
2023-01-18T15:42:43.885Z,6.65
2023-01-18T15:45:19.590Z,6.43
2023-01-18T15:47:50.163Z,6.93
2023-01-18T15:50:22.298Z,7.00
2023-01-18T15:53:06.321Z,7.82
2023-01-18T15:55:58.423Z,8.43
2023-01-18T15:58:40.802Z,6.97
2023-01-18T16:01:13.110Z,8.07
2023-01-18T16:03:50.093Z,8.07
2023-01-18T16:06:31.947Z,7.32
2023-01-18T16:09:21.008Z,7.30
2023-01-18T16:11:52.722Z,8.68
2023-01-18T16:14:27.833Z,7.60
2023-01-18T16:17:20.816Z,7.85
2023-01-18T16:19:53.646Z,7.35
2023-01-18T16:22:26.288Z,7.20
2023-01-18T16:24:56.598Z,7.43
2023-01-18T16:27:27.647Z,7.60
2023-01-18T16:30:05.393Z,6.88
2023-01-18T16:32:34.781Z,7.65
2023-01-18T16:35:21.054Z,7.50
2023-01-18T16:37:48.918Z,8.18
2023-01-18T16:40:23.396Z,8.75
2023-01-18T16:43:01.375Z,8.90
2023-01-18T16:45:30.082Z,9.23
2023-01-18T16:47:56.675Z,8.23
2023-01-18T16:50:23.506Z,8.80
2023-01-18T16:52:50.029Z,8.15
2023-01-18T16:55:17.955Z,8.35
2023-01-18T16:57:44.799Z,8.10
2023-01-18T17:00:24.076Z,8.40
2023-01-18T17:02:50.644Z,9.23
2023-01-18T17:05:17.478Z,8.43
2023-01-18T17:07:44.045Z,9.38
2023-01-18T17:10:26.099Z,8.68
2023-01-18T17:12:52.683Z,9.20
2023-01-18T17:15:20.239Z,8.80
2023-01-18T17:17:47.505Z,9.10
2023-01-18T17:20:21.049Z,8.77
2023-01-18T17:22:47.557Z,12.18
2023-01-18T17:25:15.291Z,12.05
2023-01-18T17:27:42.105Z,9.98
2023-01-18T17:30:10.469Z,10.50
2023-01-18T17:32:37.089Z,9.52
2023-01-18T17:35:05.693Z,8.32
2023-01-18T17:37:34.098Z,9.50
2023-01-18T17:40:16.349Z,9.27
2023-01-18T17:42:44.723Z,9.18
2023-01-18T17:45:14.335Z,9.90
2023-01-18T17:47:42.916Z,10.02
2023-01-18T17:50:12.142Z,10.57
2023-01-18T17:52:40.410Z,9.80
2023-01-18T17:55:10.355Z,9.35
2023-01-18T17:57:36.949Z,10.07
2023-01-18T18:00:04.824Z,10.30
2023-01-18T18:02:31.293Z,10.30
2023-01-18T18:04:59.361Z,10.93
2023-01-18T18:07:26.397Z,9.85
2023-01-18T18:09:58.118Z,10.15
2023-01-18T18:12:24.552Z,11.27
2023-01-18T18:14:53.289Z,10.68
2023-01-18T18:17:20.031Z,11.98
2023-01-18T18:19:46.467Z,10.90
2023-01-18T18:22:12.928Z,12.10
2023-01-18T18:24:39.559Z,11.65
2023-01-18T18:27:06.124Z,12.65
2023-01-18T18:29:33.179Z,11.63
2023-01-18T18:31:59.708Z,12.27
2023-01-18T18:34:26.233Z,12.88
2023-01-18T18:36:52.697Z,12.77
2023-01-18T18:39:19.207Z,12.98
2023-01-18T18:41:48.289Z,12.60
2023-01-18T18:44:15.071Z,13.60
2023-01-18T18:46:42.026Z,13.45
2023-01-18T18:49:08.535Z,12.52
2023-01-18T18:51:37.921Z,12.45
2023-01-18T18:54:05.002Z,12.55
2023-01-18T18:56:31.866Z,11.65
2023-01-18T18:58:58.428Z,11.65
2023-01-18T19:01:29.205Z,12.50
2023-01-18T19:03:58.484Z,8.00
2023-01-18T19:06:25.841Z,12.70
2023-01-18T19:08:52.407Z,12.60
2023-01-18T19:11:18.945Z,12.23
2023-01-18T19:13:46.336Z,12.75
2023-01-18T19:16:14.007Z,13.05
2023-01-18T19:18:41.179Z,11.85
2023-01-18T19:21:07.729Z,11.73
2023-01-18T19:23:34.551Z,12.00
2023-01-18T19:26:01.164Z,13.38
2023-01-18T19:28:27.739Z,13.85
2023-01-18T19:30:54.928Z,12.02
2023-01-18T19:33:21.433Z,12.80
2023-01-18T19:35:47.863Z,12.23
2023-01-18T19:38:14.909Z,12.23
2023-01-18T19:40:41.949Z,14.90
2023-01-18T19:43:08.425Z,13.30
2023-01-18T19:45:37.694Z,12.65
2023-01-18T19:48:05.101Z,13.05
2023-01-18T19:50:31.901Z,13.77
2023-01-18T19:52:58.794Z,13.15
2023-01-18T19:55:25.596Z,13.15
2023-01-18T19:57:55.156Z,13.57
2023-01-18T20:00:21.803Z,14.98
2023-01-18T20:02:48.396Z,15.10
2023-01-18T20:05:14.987Z,14.13
2023-01-18T20:07:41.465Z,14.63
2023-01-18T20:10:08.382Z,13.73
2023-01-18T20:12:35.040Z,14.85
2023-01-18T20:15:01.702Z,16.42
2023-01-18T20:17:28.196Z,15.38
2023-01-18T20:19:54.741Z,14.60
2023-01-18T20:22:22.497Z,15.90
2023-01-18T20:24:49.298Z,14.88
2023-01-18T20:27:17.329Z,15.10
2023-01-18T20:29:44.906Z,15.98
2023-01-18T20:32:17.128Z,16.77
2023-01-18T20:34:46.433Z,15.95
2023-01-18T20:37:13.704Z,16.95
2023-01-18T20:39:40.244Z,16.42
2023-01-18T20:42:06.819Z,18.02
2023-01-18T20:44:33.396Z,16.45
2023-01-18T20:46:59.911Z,16.17
2023-01-18T20:49:37.296Z,16.92
2023-01-18T20:52:05.115Z,15.95
2023-01-18T20:54:31.618Z,16.38
2023-01-18T20:56:58.818Z,17.23
2023-01-18T20:59:25.630Z,16.27
2023-01-18T21:01:52.992Z,15.40
2023-01-18T21:04:22.372Z,17.73
2023-01-18T21:06:49.815Z,16.05
2023-01-18T21:09:16.940Z,17.05
2023-01-18T21:11:43.807Z,17.40
2023-01-18T21:14:10.387Z,16.85
2023-01-18T21:16:37.009Z,16.23
2023-01-18T21:19:03.640Z,17.67
2023-01-18T21:21:31.772Z,20.27
2023-01-18T21:23:58.645Z,17.48
2023-01-18T21:26:25.201Z,17.63
2023-01-18T21:28:51.677Z,18.88
2023-01-18T21:31:18.305Z,18.88
2023-01-18T21:33:44.961Z,18.92
2023-01-18T21:36:17.619Z,18.88
2023-01-18T21:38:44.598Z,17.95
2023-01-18T21:41:30.031Z,18.10
2023-01-18T21:44:15.436Z,18.20
2023-01-18T21:46:49.705Z,19.27
2023-01-18T21:49:52.194Z,18.35
2023-01-18T21:52:39.665Z,18.60
2023-01-18T21:55:06.264Z,19.02
2023-01-18T21:57:32.706Z,18.92
2023-01-18T21:59:59.124Z,19.10
2023-01-18T22:02:25.773Z,19.98
2023-01-18T22:05:01.931Z,19.20
2023-01-18T22:07:30.243Z,18.98
2023-01-18T22:10:06.105Z,19.25
2023-01-18T22:12:35.543Z,18.73
2023-01-18T22:15:03.034Z,19.20
2023-01-18T22:17:29.864Z,17.92
2023-01-18T22:19:56.517Z,18.20
2023-01-18T22:22:22.965Z,17.40
2023-01-18T22:24:49.630Z,17.15
2023-01-18T22:27:16.193Z,18.10
2023-01-18T22:29:42.799Z,17.45
2023-01-18T22:32:09.332Z,16.08
2023-01-18T22:34:36.341Z,16.90
2023-01-18T22:37:03.292Z,16.85
2023-01-18T22:39:29.943Z,17.08
2023-01-18T22:41:56.425Z,15.82
2023-01-18T22:44:23.129Z,16.92
2023-01-18T22:46:49.618Z,16.00
2023-01-18T22:49:16.110Z,16.10
2023-01-18T22:51:42.547Z,16.67
2023-01-18T22:54:09.063Z,15.05
2023-01-18T22:56:35.742Z,14.63
2023-01-18T22:59:02.274Z,15.93
2023-01-18T23:01:31.453Z,14.90
2023-01-18T23:04:00.265Z,15.27
2023-01-18T23:06:28.143Z,15.88
2023-01-18T23:08:55.892Z,16.00
2023-01-18T23:11:25.430Z,15.23
2023-01-18T23:14:15.912Z,14.93
2023-01-18T23:17:02.030Z,14.68
2023-01-18T23:19:30.447Z,14.38
2023-01-18T23:21:57.751Z,13.93
2023-01-18T23:24:24.442Z,14.27
2023-01-18T23:26:51.935Z,14.45
2023-01-18T23:29:18.953Z,14.98
2023-01-18T23:31:46.703Z,14.73
2023-01-18T23:34:13.280Z,14.75
2023-01-18T23:36:39.847Z,13.63
2023-01-18T23:39:25.142Z,14.43
2023-01-18T23:42:10.371Z,15.13
2023-01-18T23:44:55.625Z,13.90
2023-01-18T23:47:41.006Z,14.90
2023-01-18T23:50:26.565Z,15.00
2023-01-18T23:53:11.855Z,14.60
2023-01-18T23:55:38.389Z,14.50
2023-01-18T23:58:04.923Z,15.10
